Meath Environmental Platform

Observations for Trim Market St

Time AQI Temp °C Hum % Pres Pa CO μg/m³ H₂S μg/m³ NO μg/m³ NO₂ μg/m³ O₃ μg/m³ SO₂ μg/m³ PM1 μg/m³ PM2.5 μg/m³ PM10 μg/m³
Friday 10 July 2026
17:21 1 34.9 34 66,435 0 34.36 0 20.92 16.92 3.55 2.85 6.37 6.68
17:20 1 35 34 66,451 0 32.84 0 13 30.17 4.04 2.85 5.84 5.84
17:18 1 35.3 33 66,531 0 38.92 0 14.86 13.21 4.52 3.56 6.4 7.52
17:17 1 35.5 33 66,562 0 37.29 0 16.45 33.98 4.84 0.71 4.26 4.69
17:16 1 35.7 32 66,576 0 31.09 0 18.35 18.3 4.28 2.85 5.36 5.9
17:15 1 35.9 32 66,590 0 26.94 0 10.23 14.95 4.81 1.43 4.3 4.73
17:14 1 36.1 32 66,610 0 27.95 0 10.89 23.19 4.93 0.71 3.76 4.14
17:12 1 36.5 32 66,698 0 31.03 0 17.15 12.74 4.41 2.14 5.41 5.95
17:09 1 37.3 30 66,724 0 20.68 0 9.95 19.03 5.15 2.14 5.46 5.8
17:07 1 37.7 30 66,750 0 16.98 0 5.77 17.37 5.87 1.43 4.93 5.42
17:01 1 38.5 29 66,884 0 17.77 0 9.75 22.63 5.66 0.71 3.34 3.67
17:00 1 38.6 29 66,867 0 12.44 0 4.74 28.27 6.46 1.43 4.43 4.88
16:55 1 39.2 28 66,935 0 7.62 0 0.17 24.7 7.14 2.85 6.1 6.72
16:54 1 39.4 28 66,955 0 7.08 0 3.24 26.33 6.48 1.43 5.02 5.53
16:53 1 39.5 28 66,977 0 2.24 0 5.22 19.94 5.79 1.43 5.02 5.53
16:52 1 39.7 28 67,007 0 4.6 0 3.39 22.32 6.55 2.85 5.58 6.14
16:51 1 39.9 28 67,005 0 0 0 8.45 11.97 4.91 2.14 6.13 6.75
16:50 1 40 28 67,035 0 0 0 0.43 15.8 6.66 1.43 4.5 4.95
16:49 1 40.2 28 67,039 0 0 0 1.06 15.88 6.3 2.14 5.58 6.14
16:48 1 40.2 28 67,074 0 0.41 0 1.05 23.79 6.83 1.43 5.03 5.54